Rockingham, United Kingdom
Current Conditions -  °F | °C
As of 8:50 PM on Thursday 23 Oct 2014 (Local Time) from EGXT Reporting Station
Broken Clouds Broken Clouds  
Wind Chill: 59°   Ceiling: 4100
Heat Index: 59°   Visibility: 6mi
Dew Point: 54°   Wind: 13mph
Humidity: 82%   Direction: 210°SSW
Pressure: 29.97"   Gusts: NA
Location:  52.52°N, 0.72°W
Report Text: EGXT 231950Z AUTO 21011KT 9999 // FEW015/// BKN041/// 15/12 Q1015
Loading
Personal Weather Stations






























Interactive Weather Map
Tropical Storm Tracking
New forecast layout! Learn more

10-Day Weather Forecast

Advertisements
Track Severe Weather on mobile